Terminal Aerodrome Forecast
Issued by NWS

Current Version | Previous Version | Graphics & Text | Print | Product List | Glossary On
Versions: 1 2 3 4 5 6 7 8 9 10 11 12 13 14 15 16 17 18 19 20 21 22 23 24
995
FTUS41 KILN 250246 AAA
TAFLUK
TAF AMD
KLUK 250246Z 2503/2524 00000KT P6SM FEW250
     FM250600 00000KT P6SM BKN070
     FM251200 19005KT P6SM VCSH BKN050
     FM251800 21007KT P6SM BKN040=

USA.gov is the U.S. government's official web portal to all federal, state and local government web resources and services.